createdAt,value
2023-02-14T00:02:20.670Z,0.52
2023-02-14T00:04:48.282Z,0.53
2023-02-14T00:07:15.977Z,0.50
2023-02-14T00:09:43.621Z,0.47
2023-02-14T00:12:11.175Z,0.47
2023-02-14T00:14:56.581Z,0.37
2023-02-14T00:17:25.571Z,0.36
2023-02-14T00:19:53.118Z,0.32
2023-02-14T00:22:20.681Z,0.28
2023-02-14T00:24:48.346Z,0.28
2023-02-14T00:27:16.004Z,0.27
2023-02-14T00:29:43.521Z,0.26
2023-02-14T00:32:11.428Z,0.24
2023-02-14T00:34:41.658Z,0.23
2023-02-14T00:40:15.996Z,0.18
2023-02-14T00:42:43.638Z,0.15
2023-02-14T00:45:11.349Z,0.12
2023-02-14T00:47:38.937Z,0.13
2023-02-14T00:50:08.660Z,0.12
2023-02-14T00:52:36.248Z,0.09
2023-02-14T00:55:03.846Z,0.06
2023-02-14T00:57:31.500Z,0.05
2023-02-14T00:59:59.069Z,0.02
2023-02-14T01:02:27.892Z,0.04
2023-02-14T01:04:55.505Z,0.04
2023-02-14T01:07:24.482Z,0.05
2023-02-14T01:09:52.028Z,0.04
2023-02-14T01:12:19.627Z,0.05
2023-02-14T01:14:47.186Z,0.03
2023-02-14T01:17:14.836Z,0.09
2023-02-14T01:19:43.170Z,0.14
2023-02-14T01:22:10.763Z,0.13
2023-02-14T01:24:39.750Z,0.16
2023-02-14T01:27:07.328Z,0.08
2023-02-14T01:35:06.165Z,-0.05
2023-02-14T01:43:14.249Z,-0.18
2023-02-14T01:45:42.108Z,-0.18
2023-02-14T01:48:10.615Z,-0.18
2023-02-14T01:50:44.455Z,-0.22
2023-02-14T01:53:15.889Z,-0.23
2023-02-14T01:55:49.220Z,-0.24
2023-02-14T01:58:21.813Z,-0.20
2023-02-14T02:01:08.503Z,-0.17
2023-02-14T02:03:56.877Z,-0.19
2023-02-14T02:06:30.366Z,-0.22
2023-02-14T02:09:06.717Z,-0.25
2023-02-14T02:11:36.050Z,-0.27
2023-02-14T02:14:04.515Z,-0.34
2023-02-14T02:16:53.555Z,-0.36
2023-02-14T02:19:55.013Z,-0.50
2023-02-14T02:22:46.360Z,-0.49
2023-02-14T02:25:27.605Z,-0.53
2023-02-14T02:28:19.546Z,-0.58
2023-02-14T02:31:20.691Z,-0.67
2023-02-14T02:34:21.738Z,-0.67
2023-02-14T02:37:01.947Z,-0.67
2023-02-14T02:39:43.721Z,-0.66
2023-02-14T02:42:22.080Z,-0.70
2023-02-14T02:45:02.214Z,-0.74
2023-02-14T02:47:34.491Z,-0.80
2023-02-14T02:50:25.549Z,-0.85
2023-02-14T02:53:04.117Z,-0.90
2023-02-14T02:55:59.949Z,-0.94
2023-02-14T02:58:33.841Z,-1.01
2023-02-14T03:01:08.428Z,-1.04
2023-02-14T03:03:56.115Z,-1.10
2023-02-14T03:06:23.735Z,-1.11
2023-02-14T03:08:52.722Z,-1.11
2023-02-14T03:11:20.490Z,-1.11
2023-02-14T03:14:05.857Z,-1.05
2023-02-14T03:16:36.343Z,-1.05
2023-02-14T03:19:33.138Z,-1.03
2023-02-14T03:22:08.427Z,-1.03
2023-02-14T03:24:47.531Z,-1.03
2023-02-14T03:27:21.036Z,-1.06
2023-02-14T03:29:58.741Z,-1.08
2023-02-14T03:32:37.001Z,-1.10
2023-02-14T03:35:14.095Z,-1.11
2023-02-14T03:37:47.713Z,-1.13
2023-02-14T03:40:21.776Z,-1.12
2023-02-14T03:42:52.701Z,-1.14
2023-02-14T03:45:27.595Z,-1.19
2023-02-14T03:47:59.502Z,-1.21
2023-02-14T03:50:30.378Z,-1.24
2023-02-14T03:52:59.992Z,-1.31
2023-02-14T03:55:35.588Z,-1.34
2023-02-14T03:58:08.657Z,-1.32
2023-02-14T04:00:39.192Z,-1.35
2023-02-14T04:03:12.682Z,-1.33
2023-02-14T04:05:43.465Z,-1.34
2023-02-14T04:08:11.967Z,-1.32
2023-02-14T04:10:43.153Z,-1.33
2023-02-14T04:13:10.846Z,-1.35
2023-02-14T04:15:38.461Z,-1.34
2023-02-14T04:18:23.584Z,-1.32
2023-02-14T04:23:31.969Z,-1.38
2023-02-14T04:26:00.904Z,-1.41
2023-02-14T04:28:28.561Z,-1.46
2023-02-14T04:30:56.286Z,-1.48
2023-02-14T04:33:24.064Z,-1.50
2023-02-14T04:35:51.677Z,-1.54
2023-02-14T04:38:19.202Z,-1.56
2023-02-14T04:40:46.763Z,-1.57
2023-02-14T04:43:15.621Z,-1.61
2023-02-14T04:45:43.177Z,-1.63
2023-02-14T04:48:10.838Z,-1.66
2023-02-14T04:50:38.403Z,-1.67
2023-02-14T04:53:05.980Z,-1.64
2023-02-14T04:55:33.666Z,-1.62
2023-02-14T04:58:01.478Z,-1.63
2023-02-14T05:00:30.428Z,-1.64
2023-02-14T05:02:58.078Z,-1.68
2023-02-14T05:05:25.733Z,-1.68
2023-02-14T05:07:53.344Z,-1.71
2023-02-14T05:10:21.120Z,-1.75
2023-02-14T05:12:48.678Z,-1.80
2023-02-14T05:15:16.500Z,-1.79
2023-02-14T05:17:45.348Z,-1.82
2023-02-14T05:20:13.166Z,-1.85
2023-02-14T05:22:40.720Z,-1.90
2023-02-14T05:25:08.854Z,-1.89
2023-02-14T05:27:36.482Z,-1.87
2023-02-14T05:30:04.141Z,-1.91
2023-02-14T05:32:31.686Z,-1.91
2023-02-14T05:35:01.266Z,-1.93
2023-02-14T05:37:29.059Z,-1.91
2023-02-14T05:39:56.595Z,-1.94
2023-02-14T05:42:24.128Z,-1.75
2023-02-14T05:44:51.680Z,-1.66
2023-02-14T05:47:19.181Z,-1.68
2023-02-14T05:49:46.818Z,-1.69
2023-02-14T05:52:15.751Z,-1.71
2023-02-14T05:54:43.335Z,-1.76
2023-02-14T05:57:10.873Z,-1.79
2023-02-14T05:59:38.428Z,-1.79
2023-02-14T06:02:06.017Z,-1.81
2023-02-14T06:04:33.913Z,-1.92
2023-02-14T06:07:01.543Z,-1.99
2023-02-14T06:09:30.500Z,-2.00
2023-02-14T06:11:58.831Z,-2.02
2023-02-14T06:14:26.707Z,-2.01
2023-02-14T06:16:54.366Z,-1.98
2023-02-14T06:19:22.133Z,-1.99
2023-02-14T06:21:49.849Z,-1.93
2023-02-14T06:24:17.447Z,-1.89
2023-02-14T06:26:46.360Z,-1.88
2023-02-14T06:29:13.881Z,-1.89
2023-02-14T06:31:41.609Z,-1.90
2023-02-14T06:34:09.465Z,-1.95
2023-02-14T06:36:37.140Z,-1.98
2023-02-14T06:39:04.768Z,-2.00
2023-02-14T06:41:32.254Z,-1.99
2023-02-14T06:44:01.213Z,-1.95
2023-02-14T06:46:28.773Z,-1.91
2023-02-14T06:48:56.330Z,-1.90
2023-02-14T06:51:23.907Z,-1.89
2023-02-14T06:53:51.469Z,-1.95
2023-02-14T06:56:19.203Z,-1.91
2023-02-14T06:58:46.740Z,-1.75
2023-02-14T07:01:15.878Z,-1.60
2023-02-14T07:03:43.510Z,-1.46
2023-02-14T07:06:11.026Z,-1.30
2023-02-14T07:08:38.668Z,-1.16
2023-02-14T07:11:06.469Z,-1.04
2023-02-14T07:13:33.996Z,-0.91
2023-02-14T07:16:01.657Z,-0.92
2023-02-14T07:18:30.655Z,-0.97
2023-02-14T07:20:58.732Z,-1.08
2023-02-14T07:23:26.444Z,-1.19
2023-02-14T07:25:54.010Z,-1.11
2023-02-14T07:28:22.066Z,-1.10
2023-02-14T07:30:49.655Z,-1.08
2023-02-14T07:33:17.312Z,-1.09
2023-02-14T07:35:46.204Z,-1.08
2023-02-14T07:38:13.784Z,-1.13
2023-02-14T07:40:41.407Z,-1.15
2023-02-14T07:43:08.988Z,-1.12
2023-02-14T07:45:36.569Z,-1.08
2023-02-14T07:48:04.537Z,-1.02
2023-02-14T07:50:32.096Z,-0.95
2023-02-14T07:53:00.988Z,-0.98
2023-02-14T07:55:28.591Z,-0.94
2023-02-14T07:57:56.163Z,-0.94
2023-02-14T08:00:24.279Z,-0.81
2023-02-14T08:02:51.971Z,-0.74
2023-02-14T08:05:20.035Z,-0.71
2023-02-14T08:07:47.629Z,-0.60
2023-02-14T08:10:16.778Z,-0.57
2023-02-14T08:13:03.419Z,-0.51
2023-02-14T08:15:51.083Z,-0.44
2023-02-14T08:18:19.564Z,-0.35
2023-02-14T08:20:48.636Z,-0.30
2023-02-14T08:23:16.833Z,-0.27
2023-02-14T08:25:46.018Z,-0.21
2023-02-14T08:28:14.835Z,-0.20
2023-02-14T08:30:43.835Z,-0.17
2023-02-14T08:33:11.570Z,-0.16
2023-02-14T08:35:39.174Z,-0.06
2023-02-14T08:38:07.451Z,-0.02
2023-02-14T08:40:36.924Z,0.06
2023-02-14T08:43:06.555Z,0.08
2023-02-14T08:45:34.584Z,0.22
2023-02-14T08:48:03.932Z,0.34
2023-02-14T08:50:32.015Z,1.08
2023-02-14T08:52:59.952Z,0.96
2023-02-14T09:00:25.117Z,1.14
2023-02-14T09:10:53.966Z,2.08
2023-02-14T09:13:21.696Z,2.26
2023-02-14T09:15:49.446Z,2.32
2023-02-14T09:18:17.131Z,2.51
2023-02-14T09:20:45.356Z,2.68
2023-02-14T09:23:12.930Z,2.95
2023-02-14T09:25:40.987Z,3.23
2023-02-14T09:28:09.932Z,3.47
2023-02-14T09:30:37.696Z,3.68
2023-02-14T09:33:05.413Z,4.03
2023-02-14T09:35:33.198Z,4.36
2023-02-14T09:38:19.175Z,4.38
2023-02-14T09:40:48.285Z,4.59
2023-02-14T09:43:24.389Z,4.76
2023-02-14T09:45:55.388Z,4.93
2023-02-14T09:48:28.404Z,5.13
2023-02-14T09:50:59.745Z,5.20
2023-02-14T09:53:30.332Z,5.10
2023-02-14T09:56:05.403Z,5.15
2023-02-14T09:58:41.676Z,5.32
2023-02-14T10:01:19.704Z,5.63
2023-02-14T10:04:02.755Z,5.68
2023-02-14T10:06:45.794Z,5.69
2023-02-14T10:09:27.504Z,5.69
2023-02-14T10:11:56.740Z,5.57
2023-02-14T10:14:29.503Z,5.58
2023-02-14T10:17:02.989Z,5.40
2023-02-14T10:19:37.249Z,5.24
2023-02-14T10:22:09.994Z,5.32
2023-02-14T10:24:41.334Z,5.38
2023-02-14T10:27:19.456Z,5.74
2023-02-14T10:29:48.539Z,5.65
2023-02-14T10:32:21.592Z,5.58
2023-02-14T10:34:51.466Z,5.89
2023-02-14T10:37:33.504Z,5.84
2023-02-14T10:40:17.568Z,5.70
2023-02-14T10:42:56.256Z,5.89
2023-02-14T10:45:33.109Z,5.78
2023-02-14T10:48:09.973Z,6.00
2023-02-14T10:50:45.781Z,6.06
2023-02-14T10:53:20.500Z,6.16
2023-02-14T10:55:53.775Z,6.51
2023-02-14T10:58:23.200Z,6.62
2023-02-14T11:00:59.826Z,6.66
2023-02-14T11:03:29.566Z,6.48
2023-02-14T11:05:57.605Z,6.49
2023-02-14T11:08:28.382Z,6.68
2023-02-14T11:11:03.972Z,6.54
2023-02-14T11:13:35.505Z,6.60
2023-02-14T11:16:07.298Z,6.91
2023-02-14T11:18:36.727Z,7.35
2023-02-14T11:21:08.115Z,7.32
2023-02-14T11:23:38.217Z,7.89
2023-02-14T11:26:11.239Z,8.65
2023-02-14T11:28:49.438Z,9.21
2023-02-14T11:31:28.735Z,9.28
2023-02-14T11:33:57.172Z,9.72
2023-02-14T11:36:24.923Z,10.15
2023-02-14T11:38:57.616Z,10.22
2023-02-14T11:41:26.104Z,9.87
2023-02-14T11:44:15.341Z,9.71
2023-02-14T11:46:52.743Z,9.79
2023-02-14T11:49:29.574Z,10.31
2023-02-14T11:52:00.059Z,10.03
2023-02-14T11:54:36.675Z,10.27
2023-02-14T11:57:08.482Z,10.02
2023-02-14T11:59:42.165Z,10.22
2023-02-14T12:02:26.452Z,9.96
2023-02-14T12:04:57.425Z,10.24
2023-02-14T12:07:29.413Z,10.86
2023-02-14T12:10:19.868Z,11.11
2023-02-14T12:12:56.136Z,11.65
2023-02-14T12:15:36.559Z,11.92
2023-02-14T12:18:53.863Z,11.75
2023-02-14T12:21:33.188Z,11.67
2023-02-14T12:24:06.966Z,11.86
2023-02-14T12:26:37.414Z,12.17
2023-02-14T12:29:13.683Z,12.49
2023-02-14T12:31:42.955Z,12.98
2023-02-14T12:34:14.023Z,13.28
2023-02-14T12:37:02.057Z,13.25
2023-02-14T12:39:39.106Z,13.44
2023-02-14T12:42:23.331Z,13.67
2023-02-14T12:44:57.741Z,13.58
2023-02-14T12:47:37.675Z,13.99
2023-02-14T12:50:24.014Z,13.87
2023-02-14T12:53:11.244Z,14.02
2023-02-14T12:55:53.787Z,13.89
2023-02-14T12:58:33.031Z,14.36
2023-02-14T13:01:29.099Z,14.34
2023-02-14T13:04:20.562Z,14.33
2023-02-14T13:06:56.937Z,13.97
2023-02-14T13:09:35.724Z,13.83
2023-02-14T13:12:16.499Z,13.81
2023-02-14T13:15:05.173Z,14.30
2023-02-14T13:17:38.979Z,14.13
2023-02-14T13:20:38.551Z,14.49
2023-02-14T13:23:14.297Z,14.69
2023-02-14T13:25:49.828Z,14.69
2023-02-14T13:28:20.441Z,14.06
2023-02-14T13:30:48.252Z,14.24
2023-02-14T13:33:27.195Z,14.48
2023-02-14T13:35:58.186Z,14.40
2023-02-14T13:38:28.325Z,14.24
2023-02-14T13:40:57.607Z,14.28
2023-02-14T13:43:46.415Z,14.13
2023-02-14T13:46:15.290Z,14.11
2023-02-14T13:48:44.248Z,14.30
2023-02-14T13:51:12.066Z,14.01
2023-02-14T13:53:43.343Z,13.61
2023-02-14T13:56:34.767Z,14.11
2023-02-14T13:59:05.681Z,14.06
2023-02-14T14:01:37.492Z,14.39
2023-02-14T14:04:07.620Z,14.68
2023-02-14T14:07:13.393Z,14.79
2023-02-14T14:09:56.992Z,14.90
2023-02-14T14:12:42.138Z,14.80
2023-02-14T14:15:20.653Z,15.40
2023-02-14T14:18:08.774Z,15.57
2023-02-14T14:20:47.794Z,15.72
2023-02-14T14:23:31.276Z,16.15
2023-02-14T14:26:02.023Z,16.25
2023-02-14T14:28:33.360Z,16.21
2023-02-14T14:31:01.229Z,16.50
2023-02-14T14:33:31.582Z,17.11
2023-02-14T14:36:02.401Z,16.84
2023-02-14T14:38:31.649Z,17.44
2023-02-14T14:41:01.842Z,17.09
2023-02-14T14:43:34.477Z,17.21
2023-02-14T14:46:04.070Z,17.03
2023-02-14T14:48:34.533Z,16.66
2023-02-14T14:51:02.288Z,17.02
2023-02-14T14:53:37.299Z,16.32
2023-02-14T14:56:13.658Z,16.33
2023-02-14T14:58:42.643Z,15.70
2023-02-14T15:01:21.173Z,16.71
2023-02-14T15:03:49.847Z,16.90
2023-02-14T15:06:20.051Z,16.08
2023-02-14T15:08:49.158Z,15.64
2023-02-14T15:11:35.908Z,14.80
2023-02-14T15:14:05.714Z,15.02
2023-02-14T15:16:37.470Z,14.60
2023-02-14T15:19:10.027Z,14.73
2023-02-14T15:21:37.900Z,14.57
2023-02-14T15:24:05.794Z,14.09
2023-02-14T15:26:37.088Z,13.69
2023-02-14T15:29:07.292Z,13.28
2023-02-14T15:31:38.918Z,13.07
2023-02-14T15:34:07.924Z,13.01
2023-02-14T15:36:36.459Z,13.21
2023-02-14T15:39:07.573Z,12.86
2023-02-14T15:41:37.124Z,13.00
2023-02-14T15:44:05.156Z,12.66
2023-02-14T15:46:35.744Z,12.40
2023-02-14T15:49:09.627Z,11.97
2023-02-14T15:51:39.019Z,11.64
2023-02-14T15:54:09.149Z,11.31
2023-02-14T15:56:44.431Z,10.96
2023-02-14T15:59:18.717Z,10.71
2023-02-14T16:01:52.571Z,10.50
2023-02-14T16:04:25.337Z,10.12
2023-02-14T16:07:07.041Z,9.80
2023-02-14T16:09:35.476Z,9.59
2023-02-14T16:12:30.525Z,9.35
2023-02-14T16:15:17.188Z,9.07
2023-02-14T16:17:45.294Z,8.98
2023-02-14T16:20:24.740Z,8.83
2023-02-14T16:22:52.573Z,8.79
2023-02-14T16:25:21.678Z,8.65
2023-02-14T16:27:51.144Z,8.46
2023-02-14T16:30:19.956Z,8.31
2023-02-14T16:32:53.503Z,8.11
2023-02-14T16:35:22.261Z,7.99
2023-02-14T16:37:51.791Z,7.89
2023-02-14T16:40:22.835Z,7.77
2023-02-14T16:42:51.839Z,7.58
2023-02-14T16:45:20.603Z,7.36
2023-02-14T16:47:48.957Z,7.18
2023-02-14T16:50:17.609Z,7.00
2023-02-14T16:52:50.569Z,6.87
2023-02-14T16:55:20.634Z,6.79
2023-02-14T16:57:53.011Z,6.72
2023-02-14T17:00:22.038Z,6.64
2023-02-14T17:02:49.656Z,6.53
2023-02-14T17:05:17.253Z,6.43
2023-02-14T17:07:45.261Z,6.38
2023-02-14T17:10:19.043Z,6.32
2023-02-14T17:12:49.300Z,6.17
2023-02-14T17:15:24.404Z,6.06
2023-02-14T17:17:55.849Z,5.89
2023-02-14T17:20:24.337Z,5.74
2023-02-14T17:22:51.915Z,5.58
2023-02-14T17:25:19.816Z,5.53
2023-02-14T17:27:48.226Z,5.38
2023-02-14T17:30:18.296Z,5.30
2023-02-14T17:32:45.965Z,5.17
2023-02-14T17:35:14.396Z,5.09
2023-02-14T17:37:42.516Z,5.04
2023-02-14T17:40:11.777Z,4.90
2023-02-14T17:42:39.503Z,4.82
2023-02-14T17:45:08.069Z,4.72
2023-02-14T17:47:36.956Z,4.66
2023-02-14T17:50:05.076Z,4.64
2023-02-14T17:52:32.732Z,4.52
2023-02-14T17:55:00.355Z,4.50
2023-02-14T17:57:27.920Z,4.43
2023-02-14T17:59:55.538Z,4.33
2023-02-14T18:02:23.152Z,4.24
2023-02-14T18:04:52.066Z,4.17
2023-02-14T18:07:19.667Z,4.11
2023-02-14T18:09:47.282Z,4.10
2023-02-14T18:12:15.301Z,4.05
2023-02-14T18:14:43.031Z,3.94
2023-02-14T18:17:12.927Z,3.85
2023-02-14T18:19:40.576Z,3.78
2023-02-14T18:22:10.167Z,3.70
2023-02-14T18:24:37.765Z,3.60
2023-02-14T18:27:06.007Z,3.56
2023-02-14T18:29:34.638Z,3.51
2023-02-14T18:32:03.777Z,3.44
2023-02-14T18:34:32.746Z,3.37
2023-02-14T18:37:02.566Z,3.36
2023-02-14T18:39:32.529Z,3.26
2023-02-14T18:42:00.962Z,3.19
2023-02-14T18:44:29.505Z,3.06
2023-02-14T18:46:57.125Z,3.03
2023-02-14T18:49:24.754Z,2.96
2023-02-14T18:51:52.327Z,2.90
2023-02-14T18:54:19.896Z,2.87
2023-02-14T18:56:48.728Z,2.84
2023-02-14T18:59:17.376Z,2.86
2023-02-14T19:01:46.053Z,2.81
2023-02-14T19:04:13.973Z,2.73
2023-02-14T19:06:43.200Z,2.67
2023-02-14T19:09:12.924Z,2.59
2023-02-14T19:11:40.753Z,2.55
2023-02-14T19:14:11.047Z,2.48
2023-02-14T19:16:41.937Z,2.45
2023-02-14T19:19:09.829Z,2.45
2023-02-14T19:21:37.694Z,2.44
2023-02-14T19:24:07.808Z,2.40
2023-02-14T19:26:39.945Z,2.32
2023-02-14T19:29:10.808Z,2.32
2023-02-14T19:31:41.019Z,2.27
2023-02-14T19:34:09.731Z,2.22
2023-02-14T19:36:37.507Z,2.15
2023-02-14T19:39:05.738Z,2.15
2023-02-14T19:41:35.233Z,2.09
2023-02-14T19:44:05.616Z,2.05
2023-02-14T19:46:35.487Z,2.05
2023-02-14T19:49:04.173Z,2.00
2023-02-14T19:51:35.809Z,2.00
2023-02-14T19:54:07.026Z,1.91
2023-02-14T19:56:36.425Z,1.83
2023-02-14T19:59:08.985Z,1.82
2023-02-14T20:01:41.289Z,1.80
2023-02-14T20:04:11.083Z,1.76
2023-02-14T20:06:39.248Z,1.74
2023-02-14T20:09:07.540Z,1.74
2023-02-14T20:11:39.236Z,1.68
2023-02-14T20:14:08.231Z,1.62
2023-02-14T20:16:39.031Z,1.57
2023-02-14T20:19:11.914Z,1.56
2023-02-14T20:21:41.783Z,1.50
2023-02-14T20:24:10.441Z,1.52
2023-02-14T20:26:41.488Z,1.47
2023-02-14T20:29:11.144Z,1.47
2023-02-14T20:31:42.908Z,1.47
2023-02-14T20:34:10.891Z,1.48
2023-02-14T20:36:39.682Z,1.47
2023-02-14T20:39:09.623Z,1.48
2023-02-14T20:41:37.192Z,1.47
2023-02-14T20:44:06.554Z,1.48
2023-02-14T20:46:35.039Z,1.43
2023-02-14T20:49:05.437Z,1.47
2023-02-14T20:51:34.826Z,1.43
2023-02-14T20:54:03.716Z,1.47
2023-02-14T20:56:31.636Z,1.45
2023-02-14T20:59:00.635Z,1.48
2023-02-14T21:01:28.665Z,1.50
2023-02-14T21:03:56.297Z,1.48
2023-02-14T21:06:26.979Z,1.53
2023-02-14T21:08:54.795Z,1.52
2023-02-14T21:11:24.053Z,1.53
2023-02-14T21:13:54.381Z,1.57
2023-02-14T21:16:21.994Z,1.58
2023-02-14T21:18:54.970Z,1.63
2023-02-14T21:21:26.762Z,1.63
2023-02-14T21:23:54.486Z,1.65
2023-02-14T21:26:22.628Z,1.66
2023-02-14T21:28:50.202Z,1.66
2023-02-14T21:31:21.738Z,1.65
2023-02-14T21:33:50.591Z,1.67
2023-02-14T21:36:19.942Z,1.73
2023-02-14T21:38:49.056Z,1.74
2023-02-14T21:41:19.319Z,1.72
2023-02-14T21:43:48.492Z,1.64
2023-02-14T21:46:16.980Z,1.59
2023-02-14T21:49:02.999Z,1.60
2023-02-14T21:51:30.869Z,1.63
2023-02-14T21:54:00.146Z,1.55
2023-02-14T21:56:28.264Z,1.47
2023-02-14T21:58:56.921Z,1.48
2023-02-14T22:01:26.167Z,1.54
2023-02-14T22:03:54.878Z,1.60
2023-02-14T22:06:23.314Z,1.70
2023-02-14T22:08:53.530Z,1.68
2023-02-14T22:11:23.809Z,1.69
2023-02-14T22:13:51.373Z,1.67
2023-02-14T22:16:21.071Z,1.70
2023-02-14T22:18:48.839Z,1.71
2023-02-14T22:21:18.786Z,1.73
2023-02-14T22:23:46.878Z,1.75
2023-02-14T22:26:18.617Z,1.69
2023-02-14T22:28:49.684Z,1.61
2023-02-14T22:31:19.261Z,1.54
2023-02-14T22:33:47.774Z,1.48
2023-02-14T22:36:16.095Z,1.44
2023-02-14T22:38:44.339Z,1.39
2023-02-14T22:41:14.010Z,1.38
2023-02-14T22:43:42.157Z,1.40
2023-02-14T22:46:13.200Z,1.40
2023-02-14T22:48:41.544Z,1.45
2023-02-14T22:51:11.550Z,1.48
2023-02-14T22:53:39.948Z,1.58
2023-02-14T22:56:12.525Z,1.64
2023-02-14T22:58:40.367Z,1.68
2023-02-14T23:01:08.234Z,1.73
2023-02-14T23:03:37.136Z,1.72
2023-02-14T23:06:04.893Z,1.74
2023-02-14T23:08:32.444Z,1.67
2023-02-14T23:11:07.372Z,1.65
2023-02-14T23:13:52.842Z,1.63
2023-02-14T23:16:38.104Z,1.58
2023-02-14T23:19:24.680Z,1.57
2023-02-14T23:21:55.356Z,1.58
2023-02-14T23:24:23.800Z,1.64
2023-02-14T23:26:52.034Z,1.68
2023-02-14T23:29:19.612Z,1.75
2023-02-14T23:31:47.227Z,1.79
2023-02-14T23:34:16.200Z,1.78
2023-02-14T23:36:43.741Z,1.75
2023-02-14T23:39:11.456Z,1.74
2023-02-14T23:41:50.981Z,1.69
2023-02-14T23:44:21.170Z,1.69
2023-02-14T23:46:49.563Z,1.68
2023-02-14T23:49:18.966Z,1.77
2023-02-14T23:51:47.804Z,1.80
2023-02-14T23:54:16.025Z,1.85
2023-02-14T23:56:45.607Z,1.82
2023-02-14T23:59:14.585Z,1.82
